createdAt,value
2018-05-01T00:02:31.908Z,74.22
2018-05-01T00:05:38.094Z,74.32
2018-05-01T00:08:43.355Z,74.41
2018-05-01T00:11:50.437Z,74.59
2018-05-01T00:14:55.688Z,74.52
2018-05-01T00:18:01.599Z,74.29
2018-05-01T00:21:07.777Z,74.58
2018-05-01T00:24:14.758Z,74.46
2018-05-01T00:27:20.923Z,74.41
2018-05-01T00:30:26.812Z,74.46
2018-05-01T00:33:31.806Z,74.67
2018-05-01T00:36:37.093Z,74.72
2018-05-01T00:39:42.378Z,74.59
2018-05-01T00:42:47.647Z,74.41
2018-05-01T00:45:52.954Z,74.48
2018-05-01T00:48:58.218Z,74.36
2018-05-01T00:52:03.485Z,74.20
2018-05-01T00:55:08.741Z,74.28
2018-05-01T00:58:14.937Z,74.23
2018-05-01T01:01:20.241Z,73.63
2018-05-01T01:04:26.313Z,74.14
2018-05-01T01:07:31.573Z,74.27
2018-05-01T01:10:36.873Z,74.17
2018-05-01T01:13:42.145Z,74.06
2018-05-01T01:16:47.133Z,73.94
2018-05-01T01:19:53.658Z,73.57
2018-05-01T01:22:58.301Z,74.03
2018-05-01T01:26:04.146Z,74.10
2018-05-01T01:29:10.109Z,73.82
2018-05-01T01:32:15.617Z,73.50
2018-05-01T01:35:19.551Z,73.75
2018-05-01T01:38:23.721Z,73.57
2018-05-01T01:41:28.809Z,73.74
2018-05-01T01:44:33.879Z,73.78
2018-05-01T01:47:39.554Z,73.55
2018-05-01T01:50:44.549Z,73.32
2018-05-01T01:53:50.568Z,73.08
2018-05-01T01:56:55.305Z,73.36
2018-05-01T02:00:01.024Z,73.08
2018-05-01T02:03:05.881Z,72.89
2018-05-01T02:06:10.581Z,72.61
2018-05-01T02:09:14.645Z,72.87
2018-05-01T02:12:18.750Z,72.60
2018-05-01T02:15:23.851Z,72.83
2018-05-01T02:18:29.313Z,72.99
2018-05-01T02:21:34.355Z,72.46
2018-05-01T02:24:38.456Z,72.85
2018-05-01T02:27:43.449Z,73.07
2018-05-01T02:30:47.545Z,72.99
2018-05-01T02:33:52.567Z,73.21
2018-05-01T02:36:57.773Z,73.09
2018-05-01T02:40:01.874Z,72.86
2018-05-01T02:43:06.182Z,72.71
2018-05-01T02:46:10.253Z,72.63
2018-05-01T02:49:14.373Z,72.35
2018-05-01T02:52:19.458Z,72.28
2018-05-01T02:55:23.550Z,72.46
2018-05-01T02:58:27.702Z,72.44
2018-05-01T03:01:31.799Z,72.19
2018-05-01T03:04:36.787Z,72.41
2018-05-01T03:07:40.861Z,72.28
2018-05-01T03:10:44.954Z,71.98
2018-05-01T03:13:50.074Z,71.56
2018-05-01T03:16:54.790Z,71.56
2018-05-01T03:19:59.817Z,71.70
2018-05-01T03:23:03.636Z,71.85
2018-05-01T03:26:08.677Z,71.81
2018-05-01T03:29:13.664Z,71.61
2018-05-01T03:32:19.570Z,71.75
2018-05-01T03:35:24.484Z,71.67
2018-05-01T03:38:29.585Z,70.96
2018-05-01T03:41:35.517Z,71.70
2018-05-01T03:44:40.556Z,71.45
2018-05-01T03:47:46.490Z,71.51
2018-05-01T03:50:52.319Z,71.64
2018-05-01T03:53:57.332Z,70.51
2018-05-01T03:57:03.100Z,71.29
2018-05-01T04:00:09.025Z,71.36
2018-05-01T04:03:13.769Z,71.49
2018-05-01T04:06:17.582Z,71.00
2018-05-01T04:09:22.693Z,71.10
2018-05-01T04:12:27.165Z,70.79
2018-05-01T04:15:32.182Z,71.31
2018-05-01T04:18:37.194Z,71.10
2018-05-01T04:21:41.285Z,70.96
2018-05-01T04:24:46.285Z,70.93
2018-05-01T04:27:51.286Z,70.88
2018-05-01T04:30:57.189Z,71.11
2018-05-01T04:34:01.949Z,71.00
2018-05-01T04:37:06.045Z,70.68
2018-05-01T04:40:09.892Z,71.04
2018-05-01T04:43:13.977Z,70.93
2018-05-01T04:46:18.061Z,70.48
2018-05-01T04:49:22.146Z,70.10
2018-05-01T04:52:26.245Z,69.24
2018-05-01T04:55:30.330Z,70.74
2018-05-01T04:58:34.490Z,70.93
2018-05-01T05:01:39.260Z,71.04
2018-05-01T05:04:44.332Z,69.95
2018-05-01T05:07:49.321Z,69.99
2018-05-01T05:10:55.108Z,70.10
2018-05-01T05:14:00.145Z,70.80
2018-05-01T05:17:04.228Z,70.02
2018-05-01T05:20:08.318Z,70.98
2018-05-01T05:23:12.424Z,70.69
2018-05-01T05:26:17.609Z,71.05
2018-05-01T05:29:22.401Z,71.02
2018-05-01T05:32:26.209Z,71.01
2018-05-01T05:35:30.293Z,71.00
2018-05-01T05:38:36.046Z,70.57
2018-05-01T05:41:40.664Z,70.88
2018-05-01T05:44:46.746Z,71.09
2018-05-01T05:47:51.773Z,71.02
2018-05-01T05:50:56.499Z,70.82
2018-05-01T05:54:00.723Z,70.93
2018-05-01T05:57:04.799Z,71.31
2018-05-01T06:00:08.621Z,71.36
2018-05-01T06:03:12.690Z,71.25
2018-05-01T06:06:17.666Z,71.18
2018-05-01T06:09:22.399Z,71.21
2018-05-01T06:12:26.481Z,71.46
2018-05-01T06:15:32.434Z,71.66
2018-05-01T06:18:38.342Z,71.71
2018-05-01T06:21:44.409Z,71.61
2018-05-01T06:24:49.197Z,71.82
2018-05-01T06:27:55.713Z,71.97
2018-05-01T06:31:00.032Z,72.11
2018-05-01T06:34:04.230Z,72.24
2018-05-01T06:37:08.314Z,72.31
2018-05-01T06:40:13.395Z,72.48
2018-05-01T06:43:18.105Z,72.56
2018-05-01T06:46:22.177Z,72.83
2018-05-01T06:49:26.272Z,73.16
2018-05-01T06:52:30.357Z,73.13
2018-05-01T06:55:34.965Z,73.22
2018-05-01T06:58:39.061Z,73.54
2018-05-01T07:01:44.100Z,73.73
2018-05-01T07:04:49.158Z,74.01
2018-05-01T07:07:54.186Z,74.29
2018-05-01T07:11:00.001Z,74.14
2018-05-01T07:14:04.719Z,74.28
2018-05-01T07:17:09.542Z,74.58
2018-05-01T07:20:14.613Z,74.81
2018-05-01T07:23:20.466Z,74.93
2018-05-01T07:26:25.358Z,75.27
2018-05-01T07:29:31.247Z,75.41
2018-05-01T07:32:37.156Z,75.48
2018-05-01T07:35:41.853Z,75.59
2018-05-01T07:38:46.022Z,75.79
2018-05-01T07:41:51.856Z,75.64
2018-05-01T07:44:57.777Z,75.83
2018-05-01T07:48:03.539Z,75.96
2018-05-01T07:51:08.485Z,76.01
2018-05-01T07:54:13.023Z,76.20
2018-05-01T07:57:17.885Z,76.53
2018-05-01T08:00:22.905Z,76.50
2018-05-01T08:03:28.821Z,76.86
2018-05-01T08:06:34.395Z,77.00
2018-05-01T08:09:39.584Z,77.08
2018-05-01T08:12:44.621Z,77.04
2018-05-01T08:15:49.535Z,77.16
2018-05-01T08:18:55.241Z,77.10
2018-05-01T08:22:00.233Z,77.50
2018-05-01T08:25:06.120Z,77.52
2018-05-01T08:28:11.154Z,77.52
2018-05-01T08:31:16.632Z,77.97
2018-05-01T08:34:21.654Z,78.18
2018-05-01T08:37:27.123Z,77.98
2018-05-01T08:40:32.146Z,78.32
2018-05-01T08:43:37.196Z,77.86
2018-05-01T08:46:42.190Z,78.38
2018-05-01T08:49:46.273Z,78.61
2018-05-01T08:52:51.267Z,78.56
2018-05-01T08:55:56.249Z,78.79
2018-05-01T08:59:00.375Z,78.72
2018-05-01T09:02:06.390Z,79.05
2018-05-01T09:05:12.089Z,78.68
2018-05-01T09:08:17.097Z,78.78
2018-05-01T09:11:22.092Z,79.05
2018-05-01T09:14:27.997Z,79.26
2018-05-01T09:17:33.906Z,78.90
2018-05-01T09:20:38.648Z,79.04
2018-05-01T09:23:42.733Z,79.62
2018-05-01T09:26:46.873Z,78.95
2018-05-01T09:29:50.669Z,78.99
2018-05-01T09:32:55.681Z,79.64
2018-05-01T09:36:00.739Z,79.51
2018-05-01T09:39:05.757Z,79.42
2018-05-01T09:42:10.538Z,79.41
2018-05-01T09:45:16.574Z,79.48
2018-05-01T09:48:21.265Z,79.66
2018-05-01T09:51:25.380Z,80.29
2018-05-01T09:54:30.578Z,79.75
2018-05-01T09:57:35.769Z,79.80
2018-05-01T10:00:40.965Z,79.85
2018-05-01T10:03:46.830Z,79.84
2018-05-01T10:06:51.457Z,80.36
2018-05-01T10:09:57.477Z,80.14
2018-05-01T10:13:02.674Z,80.72
2018-05-01T10:16:07.798Z,80.61
2018-05-01T10:19:14.409Z,80.83
2018-05-01T10:22:20.033Z,80.57
2018-05-01T10:25:25.927Z,81.08
2018-05-01T10:28:32.855Z,80.99
2018-05-01T10:31:38.918Z,80.81
2018-05-01T10:34:44.729Z,81.04
2018-05-01T10:37:49.921Z,80.63
2018-05-01T10:40:56.030Z,80.67
2018-05-01T10:44:02.145Z,81.00
2018-05-01T10:47:07.537Z,80.74
2018-05-01T10:50:12.733Z,80.68
2018-05-01T10:53:18.466Z,80.81
2018-05-01T10:56:23.665Z,80.63
2018-05-01T10:59:29.778Z,81.00
2018-05-01T11:02:35.908Z,80.38
2018-05-01T11:05:41.130Z,80.63
2018-05-01T11:08:47.238Z,80.76
2018-05-01T11:11:52.461Z,80.66
2018-05-01T11:14:57.836Z,80.93
2018-05-01T11:18:03.025Z,80.39
2018-05-01T11:21:08.212Z,80.18
2018-05-01T11:24:13.405Z,79.90
2018-05-01T11:27:18.597Z,79.61
2018-05-01T11:30:24.489Z,79.45
2018-05-01T11:33:29.712Z,79.43
2018-05-01T11:36:36.001Z,79.25
2018-05-01T11:39:42.105Z,79.14
2018-05-01T11:42:47.300Z,79.22
2018-05-01T11:45:52.493Z,79.57
2018-05-01T11:48:58.350Z,79.43
2018-05-01T11:52:04.852Z,79.90
2018-05-01T11:55:11.016Z,79.62
2018-05-01T11:58:17.161Z,79.29
2018-05-01T12:01:23.269Z,79.37
2018-05-01T12:04:28.479Z,79.23
2018-05-01T12:07:33.866Z,78.91
2018-05-01T12:10:39.092Z,78.71
2018-05-01T12:13:44.908Z,78.83
2018-05-01T12:16:50.128Z,78.58
2018-05-01T12:19:55.321Z,78.52
2018-05-01T12:23:00.525Z,78.70
2018-05-01T12:26:05.760Z,78.83
2018-05-01T12:29:12.665Z,78.83
2018-05-01T12:32:18.822Z,79.03
2018-05-01T12:35:24.921Z,79.03
2018-05-01T12:38:30.940Z,78.97
2018-05-01T12:41:36.140Z,78.36
2018-05-01T12:44:42.237Z,78.56
2018-05-01T12:47:47.921Z,78.33
2018-05-01T12:50:53.123Z,78.67
2018-05-01T12:53:58.342Z,78.41
2018-05-01T12:57:04.118Z,78.74
2018-05-01T13:00:09.060Z,78.69
2018-05-01T13:03:14.888Z,78.39
2018-05-01T13:06:20.282Z,78.75
2018-05-01T13:09:25.505Z,78.99
2018-05-01T13:12:32.654Z,79.02
2018-05-01T13:15:38.578Z,79.25
2018-05-01T13:18:44.489Z,79.52
2018-05-01T13:21:50.623Z,79.73
2018-05-01T13:24:56.334Z,80.54
2018-05-01T13:28:01.530Z,79.91
2018-05-01T13:31:06.725Z,80.54
2018-05-01T13:34:11.929Z,79.72
2018-05-01T13:37:17.126Z,79.82
2018-05-01T13:40:22.526Z,79.53
2018-05-01T13:43:27.736Z,79.69
2018-05-01T13:46:34.773Z,79.68
2018-05-01T13:49:40.888Z,79.78
2018-05-01T13:52:46.173Z,79.55
2018-05-01T13:55:52.223Z,79.63
2018-05-01T13:58:57.428Z,79.32
2018-05-01T14:02:02.628Z,79.64
2018-05-01T14:05:08.738Z,80.17
2018-05-01T14:08:13.934Z,79.97
2018-05-01T14:11:20.230Z,79.97
2018-05-01T14:14:26.072Z,79.84
2018-05-01T14:17:31.472Z,79.65
2018-05-01T14:20:36.670Z,79.50
2018-05-01T14:23:41.886Z,79.38
2018-05-01T14:26:49.004Z,79.24
2018-05-01T14:29:55.741Z,79.15
2018-05-01T14:33:02.760Z,79.61
2018-05-01T14:36:09.783Z,79.67
2018-05-01T14:39:16.825Z,79.70
2018-05-01T14:42:22.946Z,79.99
2018-05-01T14:45:28.132Z,80.11
2018-05-01T14:48:33.330Z,80.13
2018-05-01T14:51:39.449Z,80.06
2018-05-01T14:54:44.849Z,80.37
2018-05-01T14:57:50.061Z,79.81
2018-05-01T15:00:55.254Z,79.68
2018-05-01T15:04:00.222Z,79.56
2018-05-01T15:07:06.332Z,80.18
2018-05-01T15:10:12.445Z,80.35
2018-05-01T15:13:19.490Z,80.18
2018-05-01T15:16:26.508Z,79.91
2018-05-01T15:19:33.433Z,80.54
2018-05-01T15:22:40.465Z,81.12
2018-05-01T15:25:46.592Z,81.06
2018-05-01T15:28:52.541Z,81.14
2018-05-01T15:31:58.747Z,81.75
2018-05-01T15:35:03.945Z,81.77
2018-05-01T15:38:10.077Z,81.78
2018-05-01T15:41:16.205Z,81.70
2018-05-01T15:44:22.117Z,81.34
2018-05-01T15:47:29.034Z,81.58
2018-05-01T15:50:34.848Z,81.12
2018-05-01T15:53:41.872Z,80.14
2018-05-01T15:56:48.000Z,80.54
2018-05-01T15:59:55.021Z,80.84
2018-05-01T16:03:01.142Z,80.98
2018-05-01T16:06:07.058Z,80.65
2018-05-01T16:09:12.265Z,80.88
2018-05-01T16:12:17.665Z,80.78
2018-05-01T16:15:22.685Z,80.29
2018-05-01T16:18:29.948Z,80.60
2018-05-01T16:21:35.500Z,80.70
2018-05-01T16:24:40.701Z,80.76
2018-05-01T16:27:46.394Z,80.91
2018-05-01T16:30:51.826Z,80.87
2018-05-01T16:33:58.050Z,80.66
2018-05-01T16:37:04.185Z,80.97
2018-05-01T16:40:10.305Z,81.10
2018-05-01T16:43:16.413Z,80.95
2018-05-01T16:46:22.945Z,81.13
2018-05-01T16:49:29.609Z,81.31
2018-05-01T16:52:35.445Z,80.96
2018-05-01T16:55:42.280Z,81.15
2018-05-01T16:58:48.169Z,81.22
2018-05-01T17:01:53.386Z,81.41
2018-05-01T17:04:58.580Z,81.16
2018-05-01T17:08:03.780Z,81.83
2018-05-01T17:11:08.987Z,81.81
2018-05-01T17:14:14.197Z,81.87
2018-05-01T17:17:19.597Z,81.67
2018-05-01T17:20:25.212Z,81.86
2018-05-01T17:23:30.418Z,82.01
2018-05-01T17:26:37.453Z,81.86
2018-05-01T17:29:43.588Z,81.94
2018-05-01T17:32:48.793Z,81.64
2018-05-01T17:35:54.399Z,81.60
2018-05-01T17:38:59.600Z,81.53
2018-05-01T17:42:05.535Z,81.10
2018-05-01T17:45:11.454Z,80.91
2018-05-01T17:48:17.569Z,80.82
2018-05-01T17:51:23.745Z,80.64
2018-05-01T17:54:30.593Z,80.57
2018-05-01T17:57:36.725Z,80.59
2018-05-01T18:00:41.936Z,80.18
2018-05-01T18:03:48.065Z,80.34
2018-05-01T18:06:55.097Z,80.18
2018-05-01T18:10:00.296Z,79.99
2018-05-01T18:13:05.515Z,79.70
2018-05-01T18:16:11.627Z,79.42
2018-05-01T18:19:18.384Z,79.26
2018-05-01T18:22:24.278Z,79.20
2018-05-01T18:25:30.411Z,79.16
2018-05-01T18:28:36.354Z,78.99
2018-05-01T18:31:41.557Z,79.07
2018-05-01T18:34:47.481Z,79.06
2018-05-01T18:37:52.672Z,78.58
2018-05-01T18:40:58.096Z,78.48
2018-05-01T18:44:03.293Z,78.22
2018-05-01T18:47:08.931Z,78.21
2018-05-01T18:50:14.143Z,78.51
2018-05-01T18:53:19.482Z,78.35
2018-05-01T18:56:25.683Z,78.04
2018-05-01T18:59:31.584Z,78.02
2018-05-01T19:02:37.697Z,77.65
2018-05-01T19:05:44.796Z,77.97
2018-05-01T19:08:50.660Z,77.78
2018-05-01T19:11:57.505Z,76.97
2018-05-01T19:15:04.233Z,76.99
2018-05-01T19:18:11.278Z,77.08
2018-05-01T19:21:17.421Z,77.04
2018-05-01T19:24:24.041Z,76.30
2018-05-01T19:27:29.245Z,76.69
2018-05-01T19:30:34.446Z,77.09
2018-05-01T19:33:39.723Z,76.86
2018-05-01T19:36:45.906Z,76.87
2018-05-01T19:39:51.189Z,76.95
2018-05-01T19:42:56.461Z,76.72
2018-05-01T19:46:02.261Z,76.83
2018-05-01T19:49:08.318Z,76.99
2018-05-01T19:52:15.320Z,77.13
2018-05-01T19:55:20.929Z,77.16
2018-05-01T19:58:27.077Z,76.74
2018-05-01T20:01:33.205Z,76.97
2018-05-01T20:04:38.937Z,76.89
2018-05-01T20:07:44.142Z,77.05
2018-05-01T20:10:50.269Z,77.17
2018-05-01T20:13:57.385Z,77.01
2018-05-01T20:17:03.384Z,77.34
2018-05-01T20:20:09.394Z,77.17
2018-05-01T20:23:15.617Z,77.30
2018-05-01T20:26:21.473Z,77.08
2018-05-01T20:29:26.673Z,77.15
2018-05-01T20:32:31.884Z,77.11
2018-05-01T20:35:37.090Z,77.12
2018-05-01T20:38:42.289Z,77.14
2018-05-01T20:41:47.489Z,77.19
2018-05-01T20:44:52.689Z,77.38
2018-05-01T20:47:58.801Z,77.13
2018-05-01T20:51:05.324Z,77.50
2018-05-01T20:54:11.451Z,77.37
2018-05-01T20:57:16.655Z,77.38
2018-05-01T21:00:22.438Z,77.42
2018-05-01T21:03:28.639Z,77.38
2018-05-01T21:06:34.453Z,77.70
2018-05-01T21:09:40.316Z,77.52
2018-05-01T21:12:45.957Z,77.54
2018-05-01T21:15:52.189Z,77.52
2018-05-01T21:18:58.930Z,77.60
2018-05-01T21:22:05.987Z,77.55
2018-05-01T21:25:13.141Z,77.70
2018-05-01T21:28:19.003Z,77.56
2018-05-01T21:31:25.114Z,77.75
2018-05-01T21:34:30.925Z,77.66
2018-05-01T21:37:36.341Z,77.79
2018-05-01T21:40:41.541Z,78.06
2018-05-01T21:43:46.760Z,78.05
2018-05-01T21:46:51.985Z,77.96
2018-05-01T21:49:59.002Z,78.18
2018-05-01T21:53:04.894Z,77.96
2018-05-01T21:56:10.720Z,78.21
2018-05-01T21:59:16.054Z,78.05
2018-05-01T22:02:21.249Z,77.88
2018-05-01T22:05:26.486Z,77.94
2018-05-01T22:08:32.805Z,78.05
2018-05-01T22:11:38.006Z,77.95
2018-05-01T22:14:43.222Z,77.78
2018-05-01T22:17:49.205Z,78.02
2018-05-01T22:20:55.206Z,78.04
2018-05-01T22:24:01.158Z,77.99
2018-05-01T22:27:08.191Z,77.91
2018-05-01T22:30:15.304Z,78.07
2018-05-01T22:33:22.348Z,78.09
2018-05-01T22:36:28.168Z,78.09
2018-05-01T22:39:33.437Z,78.12
2018-05-01T22:42:38.619Z,78.29
2018-05-01T22:45:43.849Z,77.99
2018-05-01T22:48:49.045Z,78.09
2018-05-01T22:51:54.258Z,78.14
2018-05-01T22:54:59.474Z,78.22
2018-05-01T22:58:05.589Z,78.32
2018-05-01T23:01:10.921Z,78.08
2018-05-01T23:04:16.122Z,78.10
2018-05-01T23:07:21.833Z,78.08
2018-05-01T23:10:27.819Z,78.06
2018-05-01T23:13:33.826Z,78.23
2018-05-01T23:16:39.954Z,78.40
2018-05-01T23:19:46.137Z,78.54
2018-05-01T23:22:51.305Z,78.38
2018-05-01T23:25:57.466Z,78.27
2018-05-01T23:29:02.396Z,78.58
2018-05-01T23:32:08.514Z,78.37
2018-05-01T23:35:14.116Z,78.49
2018-05-01T23:38:21.156Z,78.53
2018-05-01T23:41:27.247Z,78.42
2018-05-01T23:44:34.460Z,78.57
2018-05-01T23:47:40.651Z,78.66
2018-05-01T23:50:46.572Z,78.59
2018-05-01T23:53:52.515Z,78.37
2018-05-01T23:56:58.698Z,78.50
